EmailTwitter


Surface observations / United Kingdom / EGLC

Regions: Quebec | Canada | USA | Europe | France | UK | Elsewhere
Station
Display
Info & Location for EGLC | Help decoding METAR

Weather Conditions observed on 2018/07/17 at 07:50 UTC at LONDON CITY AIRP, UK (EGLC)

Temperature: 19.0 Celsius.

Dewpoint: 11.0 Celsius.

Relative Humidity: 60%

Winds: West at 17 km/h or 9 knots.

Mean Sea level Pressure: 101.50 kilopascals.

Horizontal visibility: 6.21 statute miles or 9.94 kilometers.

Coded METAR:

EGLC 170750Z AUTO 27009KT 220V300 9999 NCD 19/11 Q1015=